createdAt,value
2022-10-30T00:01:04.518Z,24.98
2022-10-30T00:03:31.469Z,25.45
2022-10-30T00:05:58.389Z,24.15
2022-10-30T00:08:28.915Z,23.67
2022-10-30T00:10:56.169Z,25.75
2022-10-30T00:13:23.084Z,26.52
2022-10-30T00:15:52.751Z,27.80
2022-10-30T00:18:21.061Z,27.20
2022-10-30T00:20:48.573Z,25.08
2022-10-30T00:23:15.808Z,23.98
2022-10-30T00:25:42.588Z,26.25
2022-10-30T00:28:09.855Z,24.83
2022-10-30T00:30:37.070Z,24.70
2022-10-30T00:33:04.981Z,23.67
2022-10-30T00:35:32.049Z,24.27
2022-10-30T00:38:01.065Z,22.92
2022-10-30T00:40:28.683Z,22.00
2022-10-30T00:42:55.880Z,21.95
2022-10-30T00:45:22.779Z,23.38
2022-10-30T00:47:56.779Z,23.20
2022-10-30T00:50:31.663Z,20.25
2022-10-30T00:53:13.103Z,19.90
2022-10-30T00:55:47.727Z,19.27
2022-10-30T00:58:20.492Z,19.42
2022-10-30T01:00:53.941Z,19.42
2022-10-30T01:03:23.123Z,19.23
2022-10-30T01:05:57.607Z,18.20
2022-10-30T01:08:24.934Z,18.05
2022-10-30T01:10:52.853Z,18.70
2022-10-30T01:13:23.000Z,19.08
2022-10-30T01:16:39.649Z,18.48
2022-10-30T01:19:42.823Z,17.98
2022-10-30T01:22:52.812Z,16.27
2022-10-30T01:26:13.580Z,16.52
2022-10-30T01:29:07.220Z,14.93
2022-10-30T01:31:52.525Z,14.95
2022-10-30T01:34:34.520Z,14.40
2022-10-30T01:37:22.430Z,16.13
2022-10-30T01:39:50.465Z,14.98
2022-10-30T01:42:57.690Z,15.65
2022-10-30T01:49:13.121Z,13.80
2022-10-30T01:51:51.592Z,13.98
2022-10-30T01:57:42.779Z,13.95
2022-10-30T02:00:16.030Z,14.98
2022-10-30T02:02:50.046Z,14.82
2022-10-30T02:05:48.402Z,15.30
2022-10-30T02:08:18.719Z,14.70
2022-10-30T02:10:48.047Z,14.35
2022-10-30T02:13:16.169Z,15.27
2022-10-30T02:15:44.237Z,15.20
2022-10-30T02:18:11.700Z,15.50
2022-10-30T02:20:39.983Z,15.85
2022-10-30T02:23:08.855Z,15.00
2022-10-30T02:25:36.235Z,14.43
2022-10-30T02:28:03.392Z,14.60
2022-10-30T02:30:31.478Z,14.77
2022-10-30T02:33:01.657Z,15.38
2022-10-30T02:35:30.436Z,14.45
2022-10-30T02:37:57.430Z,15.48
2022-10-30T02:40:26.282Z,15.68
2022-10-30T02:42:54.778Z,15.73
2022-10-30T02:45:22.227Z,15.90
2022-10-30T02:47:49.178Z,14.52
2022-10-30T02:50:17.218Z,15.38
2022-10-30T02:52:44.211Z,14.98
2022-10-30T02:55:11.044Z,13.82
2022-10-30T02:57:38.696Z,13.30
2022-10-30T03:00:07.176Z,13.27
2022-10-30T03:02:34.460Z,13.55
2022-10-30T03:05:01.405Z,12.63
2022-10-30T03:07:29.880Z,12.68
2022-10-30T03:09:56.904Z,13.25
2022-10-30T03:12:23.711Z,13.57
2022-10-30T03:14:52.314Z,12.77
2022-10-30T03:17:19.130Z,13.93
2022-10-30T03:19:47.391Z,13.88
2022-10-30T03:22:14.626Z,13.13
2022-10-30T03:24:41.487Z,14.02
2022-10-30T03:27:08.495Z,13.32
2022-10-30T03:29:35.681Z,13.02
2022-10-30T03:32:04.302Z,12.82
2022-10-30T03:34:36.303Z,14.23
2022-10-30T03:37:07.021Z,12.95
2022-10-30T03:39:34.278Z,14.20
2022-10-30T03:42:03.180Z,12.98
2022-10-30T03:44:30.079Z,14.82
2022-10-30T03:46:58.334Z,12.75
2022-10-30T03:49:31.947Z,13.60
2022-10-30T03:52:00.773Z,13.00
2022-10-30T03:54:27.597Z,13.60
2022-10-30T03:56:54.902Z,13.02
2022-10-30T03:59:25.606Z,12.95
2022-10-30T04:04:50.234Z,13.07
2022-10-30T04:07:17.239Z,13.18
2022-10-30T04:09:44.321Z,13.65
2022-10-30T04:12:11.212Z,12.98
2022-10-30T04:14:38.090Z,12.38
2022-10-30T04:17:06.322Z,12.85
2022-10-30T04:19:33.224Z,12.32
2022-10-30T04:22:00.376Z,12.57
2022-10-30T04:24:27.406Z,12.88
2022-10-30T04:26:56.090Z,12.52
2022-10-30T04:29:22.961Z,13.05
2022-10-30T04:31:50.216Z,11.82
2022-10-30T04:34:17.391Z,12.48
2022-10-30T04:36:44.304Z,12.73
2022-10-30T04:39:11.747Z,12.32
2022-10-30T04:41:38.957Z,11.95
2022-10-30T04:44:13.448Z,12.32
2022-10-30T04:46:40.504Z,12.20
2022-10-30T04:49:09.709Z,13.38
2022-10-30T04:51:37.069Z,11.77
2022-10-30T04:54:05.846Z,12.90
2022-10-30T04:56:35.425Z,12.38
2022-10-30T04:59:04.012Z,11.38
2022-10-30T05:01:31.661Z,11.50
2022-10-30T05:03:59.115Z,12.65
2022-10-30T05:06:32.625Z,11.55
2022-10-30T05:08:59.705Z,12.18
2022-10-30T05:11:39.427Z,11.55
2022-10-30T05:14:07.175Z,11.40
2022-10-30T05:16:34.572Z,12.20
2022-10-30T05:19:03.845Z,12.23
2022-10-30T05:21:31.924Z,11.65
2022-10-30T05:23:58.936Z,12.02
2022-10-30T05:26:27.868Z,11.88
2022-10-30T05:28:54.883Z,12.02
2022-10-30T05:31:22.001Z,11.95
2022-10-30T05:34:26.863Z,11.38
2022-10-30T05:36:54.395Z,12.15
2022-10-30T05:39:22.196Z,12.18
2022-10-30T05:41:50.998Z,11.35
2022-10-30T05:44:29.209Z,11.82
2022-10-30T05:47:08.010Z,12.32
2022-10-30T05:49:35.785Z,11.68
2022-10-30T05:52:05.760Z,11.52
2022-10-30T05:54:32.937Z,12.05
2022-10-30T05:57:22.635Z,12.70
2022-10-30T05:59:49.888Z,11.57
2022-10-30T06:02:17.473Z,11.80
2022-10-30T06:04:44.399Z,12.90
2022-10-30T06:07:13.799Z,12.40
2022-10-30T06:09:40.661Z,12.02
2022-10-30T06:12:23.232Z,11.35
2022-10-30T06:15:22.724Z,11.45
2022-10-30T06:17:50.515Z,12.15
2022-10-30T06:20:26.576Z,11.80
2022-10-30T06:23:05.890Z,10.50
2022-10-30T06:25:43.758Z,12.82
2022-10-30T06:28:21.098Z,11.77
2022-10-30T06:30:48.127Z,11.43
2022-10-30T06:33:15.202Z,12.00
2022-10-30T06:35:51.478Z,11.88
2022-10-30T06:38:19.932Z,11.38
2022-10-30T06:40:49.632Z,12.10
2022-10-30T06:43:28.102Z,9.95
2022-10-30T06:46:03.761Z,10.93
2022-10-30T06:48:32.272Z,11.30
2022-10-30T06:51:02.805Z,11.57
2022-10-30T06:53:33.132Z,11.15
2022-10-30T06:56:19.987Z,13.13
2022-10-30T06:59:10.931Z,13.23
2022-10-30T07:01:55.815Z,12.15
2022-10-30T07:07:18.901Z,11.63
2022-10-30T07:09:48.514Z,11.88
2022-10-30T07:12:18.761Z,13.27
2022-10-30T07:15:01.971Z,11.90
2022-10-30T07:17:34.787Z,11.73
2022-10-30T07:20:09.201Z,11.80
2022-10-30T07:22:39.457Z,11.85
2022-10-30T07:25:08.222Z,10.68
2022-10-30T07:27:54.632Z,11.63
2022-10-30T07:30:32.814Z,11.15
2022-10-30T07:36:03.803Z,11.43
2022-10-30T07:39:06.019Z,10.48
2022-10-30T07:41:40.143Z,10.30
2022-10-30T07:44:33.271Z,10.13
2022-10-30T07:47:25.535Z,10.50
2022-10-30T07:50:01.345Z,11.00
2022-10-30T07:55:34.700Z,11.30
2022-10-30T08:00:59.587Z,9.43
2022-10-30T08:03:31.799Z,10.27
2022-10-30T08:08:43.317Z,10.38
2022-10-30T08:11:29.391Z,9.75
2022-10-30T08:13:58.495Z,9.68
2022-10-30T08:16:25.476Z,9.25
2022-10-30T08:18:52.684Z,12.25
2022-10-30T08:21:23.358Z,13.23
2022-10-30T08:23:57.298Z,11.38
2022-10-30T08:26:27.731Z,11.18
2022-10-30T08:28:54.636Z,9.77
2022-10-30T08:31:23.354Z,10.40
2022-10-30T08:34:15.822Z,9.20
2022-10-30T08:37:05.087Z,9.73
2022-10-30T08:39:32.002Z,10.40
2022-10-30T08:42:16.377Z,10.25
2022-10-30T08:44:44.616Z,10.05
2022-10-30T08:47:39.764Z,9.55
2022-10-30T08:50:07.931Z,9.23
2022-10-30T08:52:35.151Z,10.02
2022-10-30T08:55:02.010Z,8.95
2022-10-30T08:57:36.115Z,10.07
2022-10-30T09:00:05.624Z,9.70
2022-10-30T09:03:05.247Z,9.35
2022-10-30T09:05:50.964Z,8.80
2022-10-30T09:08:18.002Z,9.20
2022-10-30T09:11:00.799Z,8.70
2022-10-30T09:13:28.461Z,9.35
2022-10-30T09:16:01.509Z,8.63
2022-10-30T09:18:30.560Z,7.75
2022-10-30T09:20:58.164Z,8.27
2022-10-30T09:23:25.676Z,8.98
2022-10-30T09:26:01.875Z,8.27
2022-10-30T09:28:41.473Z,8.98
2022-10-30T09:31:46.833Z,7.80
2022-10-30T09:34:17.787Z,8.18
2022-10-30T09:36:48.052Z,7.55
2022-10-30T09:39:15.742Z,6.78
2022-10-30T09:42:14.551Z,6.72
2022-10-30T09:45:28.530Z,6.95
2022-10-30T09:48:42.242Z,6.53
2022-10-30T09:51:29.355Z,6.45
2022-10-30T09:54:21.266Z,5.93
2022-10-30T09:57:27.336Z,5.88
2022-10-30T10:00:10.440Z,5.55
2022-10-30T10:03:17.177Z,5.80
2022-10-30T10:06:06.080Z,5.05
2022-10-30T10:09:09.392Z,5.60
2022-10-30T10:12:00.549Z,4.95
2022-10-30T10:14:37.314Z,5.68
2022-10-30T10:17:12.067Z,5.63
2022-10-30T10:19:47.935Z,5.95
2022-10-30T10:24:49.500Z,4.57
2022-10-30T10:27:59.135Z,4.97
2022-10-30T10:30:42.360Z,4.95
2022-10-30T10:33:30.251Z,5.35
2022-10-30T10:36:14.756Z,5.38
2022-10-30T10:38:52.972Z,4.88
2022-10-30T10:41:53.907Z,5.43
2022-10-30T10:44:42.318Z,5.18
2022-10-30T10:47:57.638Z,4.53
2022-10-30T10:50:34.609Z,5.10
2022-10-30T10:53:24.211Z,4.82
2022-10-30T10:55:54.987Z,5.38
2022-10-30T10:58:39.008Z,5.00
2022-10-30T11:01:13.708Z,5.07
2022-10-30T11:04:11.373Z,5.27
2022-10-30T11:06:49.651Z,5.35
2022-10-30T11:09:20.036Z,5.10
2022-10-30T11:11:49.234Z,5.53
2022-10-30T11:14:29.075Z,4.65
2022-10-30T11:17:32.765Z,4.60
2022-10-30T11:20:13.658Z,4.75
2022-10-30T11:22:47.355Z,4.35
2022-10-30T11:25:26.928Z,4.97
2022-10-30T11:28:04.430Z,5.43
2022-10-30T11:30:31.836Z,4.68
2022-10-30T11:32:59.662Z,5.57
2022-10-30T11:35:26.971Z,4.40
2022-10-30T11:38:19.223Z,4.82
2022-10-30T11:40:52.839Z,4.93
2022-10-30T11:43:23.621Z,4.97
2022-10-30T11:45:51.467Z,5.72
2022-10-30T11:48:33.650Z,5.00
2022-10-30T11:51:06.128Z,4.93
2022-10-30T11:53:42.040Z,4.25
2022-10-30T11:56:21.685Z,4.97
2022-10-30T11:58:57.717Z,4.38
2022-10-30T12:01:35.835Z,5.15
2022-10-30T12:04:32.913Z,4.97
2022-10-30T12:07:29.440Z,4.60
2022-10-30T12:09:59.728Z,3.90
2022-10-30T12:12:42.556Z,4.80
2022-10-30T12:15:20.772Z,4.63
2022-10-30T12:17:58.715Z,4.20
2022-10-30T12:20:26.884Z,4.45
2022-10-30T12:22:54.563Z,4.60
2022-10-30T12:25:32.463Z,4.82
2022-10-30T12:28:07.165Z,4.82
2022-10-30T12:30:49.883Z,5.03
2022-10-30T12:33:25.556Z,4.90
2022-10-30T12:36:23.467Z,4.63
2022-10-30T12:39:03.039Z,4.57
2022-10-30T12:41:40.943Z,4.30
2022-10-30T12:44:07.712Z,4.15
2022-10-30T12:46:47.443Z,4.07
2022-10-30T12:49:29.528Z,3.85
2022-10-30T12:52:05.835Z,4.18
2022-10-30T12:54:40.407Z,4.43
2022-10-30T12:57:18.733Z,4.40
2022-10-30T13:00:07.525Z,4.18
2022-10-30T13:03:09.109Z,3.95
2022-10-30T13:06:07.013Z,4.40
2022-10-30T13:08:55.240Z,4.00
2022-10-30T13:11:45.928Z,4.38
2022-10-30T13:14:20.643Z,4.38
2022-10-30T13:16:47.700Z,3.80
2022-10-30T13:19:14.958Z,4.20
2022-10-30T13:21:47.892Z,4.47
2022-10-30T13:24:31.791Z,4.22
2022-10-30T13:27:18.304Z,4.28
2022-10-30T13:30:17.285Z,3.92
2022-10-30T13:33:03.102Z,3.75
2022-10-30T13:35:52.147Z,4.40
2022-10-30T13:38:38.118Z,4.75
2022-10-30T13:41:36.001Z,4.82
2022-10-30T13:44:44.849Z,4.03
2022-10-30T13:47:27.864Z,4.47
2022-10-30T13:50:09.875Z,4.38
2022-10-30T13:52:39.987Z,4.22
2022-10-30T13:55:29.746Z,3.55
2022-10-30T13:58:17.317Z,4.57
2022-10-30T14:01:15.394Z,4.40
2022-10-30T14:04:02.366Z,4.70
2022-10-30T14:06:39.627Z,4.25
2022-10-30T14:09:43.478Z,4.13
2022-10-30T14:12:52.119Z,4.35
2022-10-30T14:15:44.459Z,4.00
2022-10-30T14:18:14.392Z,4.70
2022-10-30T14:20:44.450Z,3.97
2022-10-30T14:23:20.947Z,3.92
2022-10-30T14:26:03.338Z,3.83
2022-10-30T14:28:32.410Z,4.47
2022-10-30T14:31:13.940Z,5.10
2022-10-30T14:33:41.072Z,4.50
2022-10-30T14:36:17.566Z,4.85
2022-10-30T14:38:55.608Z,4.72
2022-10-30T14:41:36.223Z,4.43
2022-10-30T14:44:50.380Z,3.95
2022-10-30T14:47:34.681Z,4.15
2022-10-30T14:50:21.760Z,4.32
2022-10-30T14:53:11.417Z,3.95
2022-10-30T14:56:07.534Z,5.00
2022-10-30T14:58:37.745Z,4.70
2022-10-30T15:01:04.900Z,4.45
2022-10-30T15:04:12.873Z,4.28
2022-10-30T15:07:04.239Z,7.50
2022-10-30T15:10:17.284Z,5.30
2022-10-30T15:12:55.813Z,4.50
2022-10-30T15:15:25.653Z,4.57
2022-10-30T15:17:59.888Z,9.90
2022-10-30T15:20:31.834Z,13.45
2022-10-30T15:23:05.163Z,9.95
2022-10-30T15:25:38.340Z,7.38
2022-10-30T15:28:05.978Z,5.80
2022-10-30T15:30:32.899Z,5.40
2022-10-30T15:33:00.106Z,6.43
2022-10-30T15:35:29.168Z,5.18
2022-10-30T15:38:06.800Z,5.90
2022-10-30T15:40:38.416Z,5.53
2022-10-30T15:43:10.823Z,5.45
2022-10-30T15:45:42.927Z,6.53
2022-10-30T15:48:25.595Z,6.85
2022-10-30T15:51:14.325Z,6.55
2022-10-30T15:53:57.209Z,6.15
2022-10-30T15:57:06.807Z,7.32
2022-10-30T15:59:32.848Z,6.78
2022-10-30T16:01:59.914Z,6.22
2022-10-30T16:04:37.404Z,6.20
2022-10-30T16:07:19.983Z,5.80
2022-10-30T16:10:17.966Z,5.75
2022-10-30T16:12:45.283Z,6.88
2022-10-30T16:15:26.616Z,6.85
2022-10-30T16:18:26.769Z,6.50
2022-10-30T16:21:22.754Z,7.85
2022-10-30T16:23:53.987Z,6.95
2022-10-30T16:26:39.363Z,9.27
2022-10-30T16:29:18.253Z,9.10
2022-10-30T16:31:51.710Z,8.48
2022-10-30T16:34:35.079Z,8.98
2022-10-30T16:37:05.222Z,9.15
2022-10-30T16:39:34.078Z,10.30
2022-10-30T16:42:01.601Z,9.88
2022-10-30T16:44:34.500Z,10.07
2022-10-30T16:47:17.013Z,9.95
2022-10-30T16:49:55.356Z,10.60
2022-10-30T16:52:29.096Z,10.52
2022-10-30T16:55:24.901Z,10.65
2022-10-30T16:57:57.964Z,13.45
2022-10-30T17:00:35.420Z,12.90
2022-10-30T17:03:10.923Z,13.15
2022-10-30T17:05:40.711Z,12.40
2022-10-30T17:08:33.467Z,11.75
2022-10-30T17:11:04.882Z,12.07
2022-10-30T17:13:33.060Z,12.20
2022-10-30T17:16:30.914Z,12.48
2022-10-30T17:19:01.142Z,10.85
2022-10-30T17:21:42.169Z,12.20
2022-10-30T17:24:23.790Z,12.55
2022-10-30T17:27:00.622Z,12.02
2022-10-30T17:29:36.946Z,15.88
2022-10-30T17:32:22.105Z,23.90
2022-10-30T17:35:13.616Z,26.42
2022-10-30T17:37:40.577Z,19.45
2022-10-30T17:40:08.046Z,15.85
2022-10-30T17:42:35.389Z,12.88
2022-10-30T17:45:02.424Z,15.35
2022-10-30T17:47:29.312Z,16.80
2022-10-30T17:49:56.289Z,16.95
2022-10-30T17:52:23.173Z,14.68
2022-10-30T17:54:50.030Z,14.32
2022-10-30T17:57:17.286Z,12.85
2022-10-30T17:59:44.310Z,12.65
2022-10-30T18:02:17.861Z,14.07
2022-10-30T18:04:45.829Z,12.85
2022-10-30T18:07:15.338Z,16.33
2022-10-30T18:09:43.570Z,15.88
2022-10-30T18:12:19.225Z,17.40
2022-10-30T18:14:46.670Z,18.43
2022-10-30T18:17:13.504Z,17.85
2022-10-30T18:19:40.645Z,18.65
2022-10-30T18:22:09.497Z,17.42
2022-10-30T18:24:36.429Z,17.25
2022-10-30T18:27:05.291Z,16.50
2022-10-30T18:29:32.299Z,16.23
2022-10-30T18:32:06.918Z,18.48
2022-10-30T18:34:41.692Z,18.08
2022-10-30T18:37:09.405Z,34.53
2022-10-30T18:42:09.533Z,20.77
2022-10-30T18:44:36.507Z,20.40
2022-10-30T18:50:01.794Z,19.27
2022-10-30T18:52:31.047Z,22.98
2022-10-30T18:54:57.909Z,21.08
2022-10-30T18:57:55.137Z,21.40
2022-10-30T19:00:25.041Z,22.40
2022-10-30T19:02:52.894Z,24.27
2022-10-30T19:05:45.639Z,24.45
2022-10-30T19:08:13.425Z,24.17
2022-10-30T19:10:44.601Z,25.05
2022-10-30T19:16:33.369Z,22.23
2022-10-30T19:19:00.466Z,23.10
2022-10-30T19:21:27.980Z,25.60
2022-10-30T19:23:56.236Z,25.13
2022-10-30T19:26:23.178Z,29.92
2022-10-30T19:28:50.439Z,32.65
2022-10-30T19:31:19.766Z,28.40
2022-10-30T19:33:51.387Z,26.77
2022-10-30T19:36:39.657Z,26.48
2022-10-30T19:39:18.459Z,26.85
2022-10-30T19:41:45.794Z,28.45
2022-10-30T19:44:12.637Z,28.20
2022-10-30T19:46:39.644Z,27.25
2022-10-30T19:49:18.187Z,30.35
2022-10-30T19:51:45.296Z,32.97
2022-10-30T19:54:12.239Z,36.03
2022-10-30T19:56:39.579Z,37.28
2022-10-30T19:59:10.976Z,32.42
2022-10-30T20:01:38.091Z,33.03
2022-10-30T20:04:05.209Z,30.83
2022-10-30T20:06:32.094Z,33.63
2022-10-30T20:09:02.346Z,32.63
2022-10-30T20:11:30.256Z,33.13
2022-10-30T20:13:57.143Z,32.17
2022-10-30T20:16:24.079Z,29.15
2022-10-30T20:18:50.982Z,30.98
2022-10-30T20:21:19.598Z,27.77
2022-10-30T20:23:46.777Z,29.10
2022-10-30T20:26:28.519Z,27.73
2022-10-30T20:28:56.444Z,26.17
2022-10-30T20:31:23.706Z,28.05
2022-10-30T20:33:50.639Z,26.65
2022-10-30T20:36:17.468Z,26.80
2022-10-30T20:38:44.549Z,28.58
2022-10-30T20:41:22.843Z,26.92
2022-10-30T20:43:50.535Z,26.60
2022-10-30T20:46:18.185Z,25.50
2022-10-30T20:48:45.557Z,25.50
2022-10-30T20:51:12.973Z,24.70
2022-10-30T20:53:39.915Z,26.85
2022-10-30T20:56:07.136Z,26.88
2022-10-30T20:58:34.040Z,24.88
2022-10-30T21:01:00.948Z,26.23
2022-10-30T21:03:28.579Z,25.92
2022-10-30T21:05:58.965Z,24.25
2022-10-30T21:08:34.090Z,25.52
2022-10-30T21:11:03.395Z,24.10
2022-10-30T21:13:33.739Z,23.80
2022-10-30T21:16:04.243Z,25.65
2022-10-30T21:18:31.439Z,24.98
2022-10-30T21:21:08.384Z,25.48
2022-10-30T21:23:35.495Z,23.85
2022-10-30T21:26:06.302Z,26.13
2022-10-30T21:28:34.054Z,25.58
2022-10-30T21:31:02.852Z,25.70
2022-10-30T21:33:31.841Z,27.20
2022-10-30T21:36:13.615Z,25.52
2022-10-30T21:38:43.205Z,25.67
2022-10-30T21:41:14.456Z,26.10
2022-10-30T21:43:41.995Z,25.80
2022-10-30T21:46:12.192Z,25.90
2022-10-30T21:48:40.119Z,26.70
2022-10-30T21:51:21.017Z,28.05
2022-10-30T21:53:48.719Z,27.42
2022-10-30T21:56:22.022Z,26.92
2022-10-30T21:58:50.353Z,26.80
2022-10-30T22:01:22.786Z,26.27
2022-10-30T22:03:50.350Z,25.52
2022-10-30T22:06:19.800Z,26.60
2022-10-30T22:08:49.476Z,26.75
2022-10-30T22:11:17.326Z,24.90
2022-10-30T22:13:44.395Z,26.40
2022-10-30T22:16:14.325Z,27.60
2022-10-30T22:18:41.727Z,27.05
2022-10-30T22:21:11.770Z,25.42
2022-10-30T22:23:40.384Z,27.45
2022-10-30T22:26:12.512Z,28.23
2022-10-30T22:28:39.508Z,28.35
2022-10-30T22:31:12.474Z,28.42
2022-10-30T22:33:40.418Z,27.45
2022-10-30T22:36:11.576Z,27.30
2022-10-30T22:38:38.497Z,28.23
2022-10-30T22:41:11.568Z,24.60
2022-10-30T22:43:39.755Z,26.52
2022-10-30T22:46:06.995Z,26.02
2022-10-30T22:48:34.132Z,25.40
2022-10-30T22:51:04.312Z,25.13
2022-10-30T22:53:33.132Z,24.08
2022-10-30T22:56:10.457Z,23.02
2022-10-30T22:58:37.376Z,23.20
2022-10-30T23:01:26.358Z,23.40
2022-10-30T23:03:56.598Z,22.98
2022-10-30T23:06:24.097Z,24.40
2022-10-30T23:08:58.159Z,23.20
2022-10-30T23:11:25.855Z,23.50
2022-10-30T23:13:52.716Z,24.33
2022-10-30T23:16:22.864Z,24.40
2022-10-30T23:18:50.792Z,23.00
2022-10-30T23:21:21.423Z,23.35
2022-10-30T23:23:49.498Z,22.75
2022-10-30T23:26:22.814Z,24.02
2022-10-30T23:28:52.549Z,22.95
2022-10-30T23:31:38.418Z,23.15
2022-10-30T23:34:14.038Z,22.95
2022-10-30T23:36:42.830Z,21.70
2022-10-30T23:39:17.948Z,22.75
2022-10-30T23:41:45.077Z,22.35
2022-10-30T23:44:14.464Z,21.45
2022-10-30T23:46:42.171Z,22.05
2022-10-30T23:49:09.010Z,22.70
2022-10-30T23:51:36.058Z,21.83
2022-10-30T23:54:03.257Z,22.17
2022-10-30T23:56:30.324Z,22.45
2022-10-30T23:58:57.698Z,20.55
